Sao Paulo do Potengi, Brazil
Current Conditions -  °F | °C
As of 12:00 AM on Wednesday 22 Oct 2014 (Local Time) from SBNT Reporting Station
Clear Clear  
Wind Chill: 77°   Ceiling: Unl
Heat Index: 79°   Visibility: 6mi
Dew Point: 68°   Wind: 12mph
Humidity: 74%   Direction: 120°ESE
Pressure: 29.91"   Gusts: NA
Location:  5.9°S, 35.76°W
Report Text: SBNT 220300Z 12010KT CAVOK 25/20 Q1013
Loading
Personal Weather Stations






























Interactive Weather Map
Tropical Storm Tracking
New forecast layout! Learn more

10-Day Weather Forecast

Advertisements
Track Severe Weather on mobile